sensor_id;sensor_type;location;lat;lon;timestamp;temperature;humidity
14351;DHT22;59223;54.276;10.194;2022-07-29T00:01:54;12.00;99.90
14351;DHT22;59223;54.276;10.194;2022-07-29T00:04:23;12.00;99.90
14351;DHT22;59223;54.276;10.194;2022-07-29T00:06:50;12.00;99.90
14351;DHT22;59223;54.276;10.194;2022-07-29T00:09:16;12.00;99.90
14351;DHT22;59223;54.276;10.194;2022-07-29T00:11:43;12.00;99.90
14351;DHT22;59223;54.276;10.194;2022-07-29T00:14:10;12.00;99.90
14351;DHT22;59223;54.276;10.194;2022-07-29T00:16:40;11.90;99.90
14351;DHT22;59223;54.276;10.194;2022-07-29T00:19:06;11.90;99.90
14351;DHT22;59223;54.276;10.194;2022-07-29T00:21:33;12.00;99.90
14351;DHT22;59223;54.276;10.194;2022-07-29T00:24:00;11.90;99.90
14351;DHT22;59223;54.276;10.194;2022-07-29T00:26:27;11.80;99.90
14351;DHT22;59223;54.276;10.194;2022-07-29T00:29:02;11.70;99.90
14351;DHT22;59223;54.276;10.194;2022-07-29T00:31:50;11.70;99.90
14351;DHT22;59223;54.276;10.194;2022-07-29T00:34:17;11.70;99.90
14351;DHT22;59223;54.276;10.194;2022-07-29T00:37:02;11.60;99.90
14351;DHT22;59223;54.276;10.194;2022-07-29T00:39:33;11.50;99.90
14351;DHT22;59223;54.276;10.194;2022-07-29T00:42:03;11.60;99.90
14351;DHT22;59223;54.276;10.194;2022-07-29T00:44:30;11.50;99.90
14351;DHT22;59223;54.276;10.194;2022-07-29T00:47:00;11.50;99.90
14351;DHT22;59223;54.276;10.194;2022-07-29T00:49:27;11.50;99.90
14351;DHT22;59223;54.276;10.194;2022-07-29T00:51:57;11.40;99.90
14351;DHT22;59223;54.276;10.194;2022-07-29T00:54:26;11.60;99.90
14351;DHT22;59223;54.276;10.194;2022-07-29T00:56:53;11.50;99.90
14351;DHT22;59223;54.276;10.194;2022-07-29T00:59:22;11.40;99.90
14351;DHT22;59223;54.276;10.194;2022-07-29T01:01:49;11.30;99.90
14351;DHT22;59223;54.276;10.194;2022-07-29T01:04:19;11.20;99.90
14351;DHT22;59223;54.276;10.194;2022-07-29T01:06:50;11.20;99.90
14351;DHT22;59223;54.276;10.194;2022-07-29T01:09:18;11.30;99.90
14351;DHT22;59223;54.276;10.194;2022-07-29T01:12:06;11.30;99.90
14351;DHT22;59223;54.276;10.194;2022-07-29T01:14:36;11.30;99.90
14351;DHT22;59223;54.276;10.194;2022-07-29T01:17:19;11.30;99.90
14351;DHT22;59223;54.276;10.194;2022-07-29T01:30:38;11.20;99.90
14351;DHT22;59223;54.276;10.194;2022-07-29T01:33:15;11.20;99.90
14351;DHT22;59223;54.276;10.194;2022-07-29T01:36:10;11.20;99.90
14351;DHT22;59223;54.276;10.194;2022-07-29T01:38:44;11.40;99.90
14351;DHT22;59223;54.276;10.194;2022-07-29T01:41:16;11.20;99.90
14351;DHT22;59223;54.276;10.194;2022-07-29T01:43:53;11.10;99.90
14351;DHT22;59223;54.276;10.194;2022-07-29T01:46:30;11.40;99.90
14351;DHT22;59223;54.276;10.194;2022-07-29T01:49:11;11.20;99.90
14351;DHT22;59223;54.276;10.194;2022-07-29T01:51:49;11.00;99.90
14351;DHT22;59223;54.276;10.194;2022-07-29T01:54:29;11.00;99.90
14351;DHT22;59223;54.276;10.194;2022-07-29T01:57:00;11.00;99.90
14351;DHT22;59223;54.276;10.194;2022-07-29T01:59:31;10.90;99.90
14351;DHT22;59223;54.276;10.194;2022-07-29T02:02:01;10.80;99.90
14351;DHT22;59223;54.276;10.194;2022-07-29T02:04:28;10.80;99.90
14351;DHT22;59223;54.276;10.194;2022-07-29T02:07:00;10.90;99.90
14351;DHT22;59223;54.276;10.194;2022-07-29T02:09:31;10.80;99.90
14351;DHT22;59223;54.276;10.194;2022-07-29T02:12:00;10.80;99.90
14351;DHT22;59223;54.276;10.194;2022-07-29T02:14:34;10.80;99.90
14351;DHT22;59223;54.276;10.194;2022-07-29T02:17:02;10.80;99.90
14351;DHT22;59223;54.276;10.194;2022-07-29T02:19:32;10.80;99.90
14351;DHT22;59223;54.276;10.194;2022-07-29T02:22:00;10.80;99.90
14351;DHT22;59223;54.276;10.194;2022-07-29T02:24:28;10.80;99.90
14351;DHT22;59223;54.276;10.194;2022-07-29T02:26:56;10.80;99.90
14351;DHT22;59223;54.276;10.194;2022-07-29T02:29:26;10.80;99.90
14351;DHT22;59223;54.276;10.194;2022-07-29T02:31:54;10.90;99.90
14351;DHT22;59223;54.276;10.194;2022-07-29T02:34:22;10.80;99.90
14351;DHT22;59223;54.276;10.194;2022-07-29T02:36:50;10.80;99.90
14351;DHT22;59223;54.276;10.194;2022-07-29T02:39:21;10.80;99.90
14351;DHT22;59223;54.276;10.194;2022-07-29T02:41:57;11.00;99.90
14351;DHT22;59223;54.276;10.194;2022-07-29T02:44:26;10.80;99.90
14351;DHT22;59223;54.276;10.194;2022-07-29T02:47:23;11.20;99.90
14351;DHT22;59223;54.276;10.194;2022-07-29T02:50:08;10.80;99.90
14351;DHT22;59223;54.276;10.194;2022-07-29T02:52:43;10.70;99.90
14351;DHT22;59223;54.276;10.194;2022-07-29T02:55:15;10.60;99.90
14351;DHT22;59223;54.276;10.194;2022-07-29T02:57:46;10.70;99.90
14351;DHT22;59223;54.276;10.194;2022-07-29T03:00:23;10.90;99.90
14351;DHT22;59223;54.276;10.194;2022-07-29T03:02:52;10.60;99.90
14351;DHT22;59223;54.276;10.194;2022-07-29T03:05:20;10.60;99.90
14351;DHT22;59223;54.276;10.194;2022-07-29T03:07:58;10.70;99.90
14351;DHT22;59223;54.276;10.194;2022-07-29T03:10:29;10.70;99.90
14351;DHT22;59223;54.276;10.194;2022-07-29T03:12:57;10.70;99.90
14351;DHT22;59223;54.276;10.194;2022-07-29T03:15:30;10.70;99.90
14351;DHT22;59223;54.276;10.194;2022-07-29T03:18:00;10.80;99.90
14351;DHT22;59223;54.276;10.194;2022-07-29T03:20:27;10.70;99.90
14351;DHT22;59223;54.276;10.194;2022-07-29T03:22:54;10.70;99.90
14351;DHT22;59223;54.276;10.194;2022-07-29T03:25:24;10.80;99.90
14351;DHT22;59223;54.276;10.194;2022-07-29T03:27:51;10.90;99.90
14351;DHT22;59223;54.276;10.194;2022-07-29T03:30:20;11.40;99.90
14351;DHT22;59223;54.276;10.194;2022-07-29T03:32:49;10.90;99.90
14351;DHT22;59223;54.276;10.194;2022-07-29T03:35:19;10.90;99.90
14351;DHT22;59223;54.276;10.194;2022-07-29T03:37:46;11.10;99.90
14351;DHT22;59223;54.276;10.194;2022-07-29T03:40:27;10.90;99.90
14351;DHT22;59223;54.276;10.194;2022-07-29T03:42:55;11.00;99.90
14351;DHT22;59223;54.276;10.194;2022-07-29T03:45:28;11.10;99.90
14351;DHT22;59223;54.276;10.194;2022-07-29T03:48:02;11.10;99.90
14351;DHT22;59223;54.276;10.194;2022-07-29T03:50:33;11.20;99.90
14351;DHT22;59223;54.276;10.194;2022-07-29T03:53:01;11.20;99.90
14351;DHT22;59223;54.276;10.194;2022-07-29T03:55:35;11.30;99.90
14351;DHT22;59223;54.276;10.194;2022-07-29T03:58:06;11.30;99.90
14351;DHT22;59223;54.276;10.194;2022-07-29T04:00:36;11.30;99.90
14351;DHT22;59223;54.276;10.194;2022-07-29T04:03:06;11.30;99.90
14351;DHT22;59223;54.276;10.194;2022-07-29T04:05:39;11.40;99.90
14351;DHT22;59223;54.276;10.194;2022-07-29T04:08:08;11.50;99.90
14351;DHT22;59223;54.276;10.194;2022-07-29T04:10:38;11.70;99.90
14351;DHT22;59223;54.276;10.194;2022-07-29T04:13:05;11.70;99.90
14351;DHT22;59223;54.276;10.194;2022-07-29T04:15:32;11.80;99.90
14351;DHT22;59223;54.276;10.194;2022-07-29T04:17:59;11.90;99.90
14351;DHT22;59223;54.276;10.194;2022-07-29T04:20:26;12.00;99.90
14351;DHT22;59223;54.276;10.194;2022-07-29T04:22:56;12.30;99.90
14351;DHT22;59223;54.276;10.194;2022-07-29T04:25:23;12.00;99.90
14351;DHT22;59223;54.276;10.194;2022-07-29T04:27:50;12.00;99.90
14351;DHT22;59223;54.276;10.194;2022-07-29T04:30:32;12.10;99.90
14351;DHT22;59223;54.276;10.194;2022-07-29T04:33:01;12.10;99.90
14351;DHT22;59223;54.276;10.194;2022-07-29T04:35:29;12.20;99.90
14351;DHT22;59223;54.276;10.194;2022-07-29T04:38:05;12.10;99.90
14351;DHT22;59223;54.276;10.194;2022-07-29T04:40:33;12.20;99.90
14351;DHT22;59223;54.276;10.194;2022-07-29T04:43:06;12.30;99.90
14351;DHT22;59223;54.276;10.194;2022-07-29T04:45:38;12.40;99.90
14351;DHT22;59223;54.276;10.194;2022-07-29T04:48:05;12.60;99.90
14351;DHT22;59223;54.276;10.194;2022-07-29T04:50:32;12.60;99.90
14351;DHT22;59223;54.276;10.194;2022-07-29T04:52:59;12.60;99.90
14351;DHT22;59223;54.276;10.194;2022-07-29T04:55:29;12.70;99.90
14351;DHT22;59223;54.276;10.194;2022-07-29T04:58:01;12.70;99.90
14351;DHT22;59223;54.276;10.194;2022-07-29T05:00:28;12.80;99.90
14351;DHT22;59223;54.276;10.194;2022-07-29T05:02:59;12.80;99.90
14351;DHT22;59223;54.276;10.194;2022-07-29T05:05:29;12.90;99.90
14351;DHT22;59223;54.276;10.194;2022-07-29T05:07:56;13.10;99.90
14351;DHT22;59223;54.276;10.194;2022-07-29T05:10:25;13.10;99.90
14351;DHT22;59223;54.276;10.194;2022-07-29T05:12:52;13.20;99.90
14351;DHT22;59223;54.276;10.194;2022-07-29T05:15:21;13.30;99.90
14351;DHT22;59223;54.276;10.194;2022-07-29T05:17:48;13.40;99.90
14351;DHT22;59223;54.276;10.194;2022-07-29T05:20:15;13.70;99.90
14351;DHT22;59223;54.276;10.194;2022-07-29T05:22:42;13.90;99.90
14351;DHT22;59223;54.276;10.194;2022-07-29T05:25:09;14.30;99.90
14351;DHT22;59223;54.276;10.194;2022-07-29T05:27:39;14.50;99.90
14351;DHT22;59223;54.276;10.194;2022-07-29T05:30:06;14.50;99.90
14351;DHT22;59223;54.276;10.194;2022-07-29T05:32:33;14.60;99.90
14351;DHT22;59223;54.276;10.194;2022-07-29T05:35:00;14.70;99.90
14351;DHT22;59223;54.276;10.194;2022-07-29T05:37:27;14.80;99.90
14351;DHT22;59223;54.276;10.194;2022-07-29T05:39:53;15.10;99.90
14351;DHT22;59223;54.276;10.194;2022-07-29T05:42:23;15.10;99.90
14351;DHT22;59223;54.276;10.194;2022-07-29T05:44:53;15.20;99.90
14351;DHT22;59223;54.276;10.194;2022-07-29T05:47:20;15.40;99.90
14351;DHT22;59223;54.276;10.194;2022-07-29T05:49:47;15.50;99.90
14351;DHT22;59223;54.276;10.194;2022-07-29T05:52:14;15.60;99.90
14351;DHT22;59223;54.276;10.194;2022-07-29T05:54:43;15.70;99.90
14351;DHT22;59223;54.276;10.194;2022-07-29T05:57:22;15.90;99.90
14351;DHT22;59223;54.276;10.194;2022-07-29T05:59:51;16.10;99.90
14351;DHT22;59223;54.276;10.194;2022-07-29T06:02:20;16.20;99.90
14351;DHT22;59223;54.276;10.194;2022-07-29T06:04:47;16.50;99.90
14351;DHT22;59223;54.276;10.194;2022-07-29T06:07:17;16.80;99.90
14351;DHT22;59223;54.276;10.194;2022-07-29T06:09:44;16.80;99.90
14351;DHT22;59223;54.276;10.194;2022-07-29T06:12:11;17.00;99.90
14351;DHT22;59223;54.276;10.194;2022-07-29T06:14:38;17.00;99.90
14351;DHT22;59223;54.276;10.194;2022-07-29T06:17:05;17.20;99.90
14351;DHT22;59223;54.276;10.194;2022-07-29T06:19:34;17.40;99.90
14351;DHT22;59223;54.276;10.194;2022-07-29T06:22:02;17.60;99.90
14351;DHT22;59223;54.276;10.194;2022-07-29T06:24:29;17.70;99.90
14351;DHT22;59223;54.276;10.194;2022-07-29T06:26:56;17.70;99.90
14351;DHT22;59223;54.276;10.194;2022-07-29T06:29:23;17.80;99.90
14351;DHT22;59223;54.276;10.194;2022-07-29T06:31:50;17.90;99.90
14351;DHT22;59223;54.276;10.194;2022-07-29T06:34:19;18.20;99.90
14351;DHT22;59223;54.276;10.194;2022-07-29T06:36:49;18.20;99.90
14351;DHT22;59223;54.276;10.194;2022-07-29T06:39:20;18.30;99.90
14351;DHT22;59223;54.276;10.194;2022-07-29T06:41:48;18.30;99.90
14351;DHT22;59223;54.276;10.194;2022-07-29T06:44:18;18.30;99.90
14351;DHT22;59223;54.276;10.194;2022-07-29T06:46:47;18.50;99.90
14351;DHT22;59223;54.276;10.194;2022-07-29T06:49:16;18.70;99.90
14351;DHT22;59223;54.276;10.194;2022-07-29T06:51:43;18.80;99.90
14351;DHT22;59223;54.276;10.194;2022-07-29T06:54:13;18.90;99.90
14351;DHT22;59223;54.276;10.194;2022-07-29T06:56:40;19.20;99.90
14351;DHT22;59223;54.276;10.194;2022-07-29T06:59:11;19.40;99.90
14351;DHT22;59223;54.276;10.194;2022-07-29T07:01:42;19.50;99.90
14351;DHT22;59223;54.276;10.194;2022-07-29T07:04:11;19.60;99.90
14351;DHT22;59223;54.276;10.194;2022-07-29T07:06:39;19.70;99.90
14351;DHT22;59223;54.276;10.194;2022-07-29T07:09:06;19.90;99.90
14351;DHT22;59223;54.276;10.194;2022-07-29T07:11:33;20.10;99.90
14351;DHT22;59223;54.276;10.194;2022-07-29T07:14:00;20.40;99.90
14351;DHT22;59223;54.276;10.194;2022-07-29T07:16:30;20.50;99.90
14351;DHT22;59223;54.276;10.194;2022-07-29T07:18:58;20.60;99.90
14351;DHT22;59223;54.276;10.194;2022-07-29T07:21:25;20.70;99.90
14351;DHT22;59223;54.276;10.194;2022-07-29T07:23:58;20.90;99.90
14351;DHT22;59223;54.276;10.194;2022-07-29T07:26:30;21.10;99.90
14351;DHT22;59223;54.276;10.194;2022-07-29T07:28:57;21.20;99.90
14351;DHT22;59223;54.276;10.194;2022-07-29T07:31:25;21.30;99.90
14351;DHT22;59223;54.276;10.194;2022-07-29T07:33:51;21.50;99.90
14351;DHT22;59223;54.276;10.194;2022-07-29T07:36:20;21.60;99.40
14351;DHT22;59223;54.276;10.194;2022-07-29T07:38:47;21.80;99.00
14351;DHT22;59223;54.276;10.194;2022-07-29T07:41:14;21.80;98.80
14351;DHT22;59223;54.276;10.194;2022-07-29T07:43:41;21.90;98.40
14351;DHT22;59223;54.276;10.194;2022-07-29T07:46:10;22.30;97.50
14351;DHT22;59223;54.276;10.194;2022-07-29T07:48:37;22.50;97.30
14351;DHT22;59223;54.276;10.194;2022-07-29T07:51:06;22.60;97.40
14351;DHT22;59223;54.276;10.194;2022-07-29T07:53:34;22.70;96.90
14351;DHT22;59223;54.276;10.194;2022-07-29T07:56:01;22.80;96.90
14351;DHT22;59223;54.276;10.194;2022-07-29T07:58:38;22.90;96.20
14351;DHT22;59223;54.276;10.194;2022-07-29T08:01:08;23.40;96.00
14351;DHT22;59223;54.276;10.194;2022-07-29T08:03:36;23.50;95.60
14351;DHT22;59223;54.276;10.194;2022-07-29T08:06:03;23.80;94.60
14351;DHT22;59223;54.276;10.194;2022-07-29T08:08:30;23.90;94.50
14351;DHT22;59223;54.276;10.194;2022-07-29T08:11:00;23.90;94.20
14351;DHT22;59223;54.276;10.194;2022-07-29T08:13:35;24.00;94.80
14351;DHT22;59223;54.276;10.194;2022-07-29T08:16:03;24.00;94.10
14351;DHT22;59223;54.276;10.194;2022-07-29T08:18:43;24.20;93.80
14351;DHT22;59223;54.276;10.194;2022-07-29T08:21:12;24.50;93.10
14351;DHT22;59223;54.276;10.194;2022-07-29T08:23:41;24.30;92.90
14351;DHT22;59223;54.276;10.194;2022-07-29T08:26:28;24.00;93.30
14351;DHT22;59223;54.276;10.194;2022-07-29T08:28:55;23.80;93.10
14351;DHT22;59223;54.276;10.194;2022-07-29T08:31:22;23.90;93.50
14351;DHT22;59223;54.276;10.194;2022-07-29T08:33:49;24.00;93.10
14351;DHT22;59223;54.276;10.194;2022-07-29T08:36:16;24.00;93.10
14351;DHT22;59223;54.276;10.194;2022-07-29T08:38:43;24.20;92.00
14351;DHT22;59223;54.276;10.194;2022-07-29T08:41:10;24.20;91.80
14351;DHT22;59223;54.276;10.194;2022-07-29T08:43:39;24.10;91.90
14351;DHT22;59223;54.276;10.194;2022-07-29T08:46:07;24.40;91.60
14351;DHT22;59223;54.276;10.194;2022-07-29T08:48:34;24.40;91.30
14351;DHT22;59223;54.276;10.194;2022-07-29T08:51:02;24.40;91.30
14351;DHT22;59223;54.276;10.194;2022-07-29T08:53:30;24.70;91.20
14351;DHT22;59223;54.276;10.194;2022-07-29T08:56:01;24.60;92.00
14351;DHT22;59223;54.276;10.194;2022-07-29T08:58:32;24.60;92.50
14351;DHT22;59223;54.276;10.194;2022-07-29T09:01:03;24.90;91.80
14351;DHT22;59223;54.276;10.194;2022-07-29T09:03:39;25.10;91.40
14351;DHT22;59223;54.276;10.194;2022-07-29T09:06:07;25.10;91.20
14351;DHT22;59223;54.276;10.194;2022-07-29T09:08:37;25.40;91.30
14351;DHT22;59223;54.276;10.194;2022-07-29T09:11:04;25.60;90.60
14351;DHT22;59223;54.276;10.194;2022-07-29T09:13:31;26.00;90.60
14351;DHT22;59223;54.276;10.194;2022-07-29T09:15:58;26.20;89.70
14351;DHT22;59223;54.276;10.194;2022-07-29T09:18:41;26.20;88.80
14351;DHT22;59223;54.276;10.194;2022-07-29T09:21:15;26.30;88.30
14351;DHT22;59223;54.276;10.194;2022-07-29T09:26:31;26.40;88.40
14351;DHT22;59223;54.276;10.194;2022-07-29T09:29:11;26.30;88.00
14351;DHT22;59223;54.276;10.194;2022-07-29T09:31:42;26.50;86.60
14351;DHT22;59223;54.276;10.194;2022-07-29T09:34:11;26.40;88.40
14351;DHT22;59223;54.276;10.194;2022-07-29T09:36:43;26.50;87.20
14351;DHT22;59223;54.276;10.194;2022-07-29T09:39:10;26.60;86.60
14351;DHT22;59223;54.276;10.194;2022-07-29T09:42:04;26.90;87.20
14351;DHT22;59223;54.276;10.194;2022-07-29T09:44:44;27.10;86.70
14351;DHT22;59223;54.276;10.194;2022-07-29T09:47:12;27.30;85.70
14351;DHT22;59223;54.276;10.194;2022-07-29T09:49:59;27.50;86.70
14351;DHT22;59223;54.276;10.194;2022-07-29T09:52:28;27.30;86.70
14351;DHT22;59223;54.276;10.194;2022-07-29T09:55:06;27.10;85.60
14351;DHT22;59223;54.276;10.194;2022-07-29T09:57:34;27.20;87.40
14351;DHT22;59223;54.276;10.194;2022-07-29T10:00:18;27.30;86.40
14351;DHT22;59223;54.276;10.194;2022-07-29T10:02:46;27.60;85.80
14351;DHT22;59223;54.276;10.194;2022-07-29T10:07:52;27.50;84.70
14351;DHT22;59223;54.276;10.194;2022-07-29T10:10:26;27.60;85.10
14351;DHT22;59223;54.276;10.194;2022-07-29T10:12:58;27.50;84.10
14351;DHT22;59223;54.276;10.194;2022-07-29T10:15:35;27.50;83.70
14351;DHT22;59223;54.276;10.194;2022-07-29T10:18:08;27.40;83.60
14351;DHT22;59223;54.276;10.194;2022-07-29T10:20:35;27.50;84.30
14351;DHT22;59223;54.276;10.194;2022-07-29T10:23:03;27.50;84.00
14351;DHT22;59223;54.276;10.194;2022-07-29T10:25:32;27.60;83.40
14351;DHT22;59223;54.276;10.194;2022-07-29T10:28:02;27.90;83.30
14351;DHT22;59223;54.276;10.194;2022-07-29T10:30:29;28.30;83.20
14351;DHT22;59223;54.276;10.194;2022-07-29T10:41:39;28.90;80.20
14351;DHT22;59223;54.276;10.194;2022-07-29T10:44:22;28.80;79.90
14351;DHT22;59223;54.276;10.194;2022-07-29T10:46:51;28.70;80.20
14351;DHT22;59223;54.276;10.194;2022-07-29T10:49:19;28.80;80.00
14351;DHT22;59223;54.276;10.194;2022-07-29T10:51:51;28.80;79.90
14351;DHT22;59223;54.276;10.194;2022-07-29T10:57:28;29.30;78.90
14351;DHT22;59223;54.276;10.194;2022-07-29T11:00:28;29.70;78.20
14351;DHT22;59223;54.276;10.194;2022-07-29T11:02:55;29.50;78.60
14351;DHT22;59223;54.276;10.194;2022-07-29T11:05:29;29.50;79.40
14351;DHT22;59223;54.276;10.194;2022-07-29T11:10:47;29.90;76.00
14351;DHT22;59223;54.276;10.194;2022-07-29T11:16:14;29.40;77.80
14351;DHT22;59223;54.276;10.194;2022-07-29T11:21:43;29.40;78.40
14351;DHT22;59223;54.276;10.194;2022-07-29T11:24:28;29.70;77.30
14351;DHT22;59223;54.276;10.194;2022-07-29T11:27:08;30.30;76.10
14351;DHT22;59223;54.276;10.194;2022-07-29T11:29:59;30.10;75.50
14351;DHT22;59223;54.276;10.194;2022-07-29T11:32:39;29.80;75.40
14351;DHT22;59223;54.276;10.194;2022-07-29T11:37:46;30.40;73.50
14351;DHT22;59223;54.276;10.194;2022-07-29T11:40:20;31.00;74.30
14351;DHT22;59223;54.276;10.194;2022-07-29T11:42:49;30.40;72.20
14351;DHT22;59223;54.276;10.194;2022-07-29T11:45:20;30.20;73.20
14351;DHT22;59223;54.276;10.194;2022-07-29T11:48:15;30.30;72.70
14351;DHT22;59223;54.276;10.194;2022-07-29T11:50:57;30.10;73.20
14351;DHT22;59223;54.276;10.194;2022-07-29T11:53:27;30.80;72.70
14351;DHT22;59223;54.276;10.194;2022-07-29T11:56:14;31.00;72.20
14351;DHT22;59223;54.276;10.194;2022-07-29T11:58:45;31.50;72.00
14351;DHT22;59223;54.276;10.194;2022-07-29T12:01:17;31.90;69.80
14351;DHT22;59223;54.276;10.194;2022-07-29T12:03:47;32.00;69.50
14351;DHT22;59223;54.276;10.194;2022-07-29T12:06:28;32.60;67.50
14351;DHT22;59223;54.276;10.194;2022-07-29T12:08:55;33.00;66.70
14351;DHT22;59223;54.276;10.194;2022-07-29T12:11:24;32.90;65.40
14351;DHT22;59223;54.276;10.194;2022-07-29T12:13:52;32.60;65.60
14351;DHT22;59223;54.276;10.194;2022-07-29T12:16:22;32.50;65.50
14351;DHT22;59223;54.276;10.194;2022-07-29T12:19:01;32.70;65.10
14351;DHT22;59223;54.276;10.194;2022-07-29T12:21:52;32.50;64.40
14351;DHT22;59223;54.276;10.194;2022-07-29T12:24:25;31.60;65.90
14351;DHT22;59223;54.276;10.194;2022-07-29T12:26:55;31.40;66.40
14351;DHT22;59223;54.276;10.194;2022-07-29T12:29:25;31.00;67.50
14351;DHT22;59223;54.276;10.194;2022-07-29T12:32:02;31.30;67.50
14351;DHT22;59223;54.276;10.194;2022-07-29T12:34:30;31.50;67.60
14351;DHT22;59223;54.276;10.194;2022-07-29T12:36:57;31.40;67.10
14351;DHT22;59223;54.276;10.194;2022-07-29T12:39:24;31.30;66.90
14351;DHT22;59223;54.276;10.194;2022-07-29T12:41:54;31.20;67.30
14351;DHT22;59223;54.276;10.194;2022-07-29T12:44:50;31.50;67.90
14351;DHT22;59223;54.276;10.194;2022-07-29T12:47:19;31.40;67.70
14351;DHT22;59223;54.276;10.194;2022-07-29T12:49:49;30.90;68.50
14351;DHT22;59223;54.276;10.194;2022-07-29T12:52:33;31.00;68.10
14351;DHT22;59223;54.276;10.194;2022-07-29T12:55:01;30.90;67.80
14351;DHT22;59223;54.276;10.194;2022-07-29T12:57:30;30.70;67.90
14351;DHT22;59223;54.276;10.194;2022-07-29T13:00:07;30.50;68.40
14351;DHT22;59223;54.276;10.194;2022-07-29T13:02:35;30.30;69.00
14351;DHT22;59223;54.276;10.194;2022-07-29T13:05:04;30.30;69.50
14351;DHT22;59223;54.276;10.194;2022-07-29T13:07:32;30.50;68.90
14351;DHT22;59223;54.276;10.194;2022-07-29T13:10:21;30.30;69.80
14351;DHT22;59223;54.276;10.194;2022-07-29T13:13:13;30.10;69.10
14351;DHT22;59223;54.276;10.194;2022-07-29T13:15:44;30.20;69.40
14351;DHT22;59223;54.276;10.194;2022-07-29T13:18:33;30.40;68.80
14351;DHT22;59223;54.276;10.194;2022-07-29T13:21:13;30.60;69.00
14351;DHT22;59223;54.276;10.194;2022-07-29T13:23:42;30.20;69.00
14351;DHT22;59223;54.276;10.194;2022-07-29T13:26:10;29.80;69.90
14351;DHT22;59223;54.276;10.194;2022-07-29T13:28:38;29.30;70.00
14351;DHT22;59223;54.276;10.194;2022-07-29T13:31:07;29.40;70.20
14351;DHT22;59223;54.276;10.194;2022-07-29T13:33:36;29.60;70.30
14351;DHT22;59223;54.276;10.194;2022-07-29T13:36:06;29.80;70.40
14351;DHT22;59223;54.276;10.194;2022-07-29T13:38:32;29.80;70.70
14351;DHT22;59223;54.276;10.194;2022-07-29T13:41:01;29.70;70.20
14351;DHT22;59223;54.276;10.194;2022-07-29T13:43:29;29.90;70.10
14351;DHT22;59223;54.276;10.194;2022-07-29T13:45:55;29.60;70.10
14351;DHT22;59223;54.276;10.194;2022-07-29T13:48:22;29.30;70.90
14351;DHT22;59223;54.276;10.194;2022-07-29T13:50:52;29.40;71.30
14351;DHT22;59223;54.276;10.194;2022-07-29T13:53:19;29.50;71.30
14351;DHT22;59223;54.276;10.194;2022-07-29T13:55:52;29.20;71.60
14351;DHT22;59223;54.276;10.194;2022-07-29T13:58:20;28.80;71.60
14351;DHT22;59223;54.276;10.194;2022-07-29T14:00:49;28.70;71.80
14351;DHT22;59223;54.276;10.194;2022-07-29T14:03:21;28.50;71.40
14351;DHT22;59223;54.276;10.194;2022-07-29T14:05:50;28.80;72.50
14351;DHT22;59223;54.276;10.194;2022-07-29T14:08:18;28.80;71.70
14351;DHT22;59223;54.276;10.194;2022-07-29T14:10:45;28.80;72.60
14351;DHT22;59223;54.276;10.194;2022-07-29T14:13:13;29.10;72.20
14351;DHT22;59223;54.276;10.194;2022-07-29T14:15:51;29.30;71.50
14351;DHT22;59223;54.276;10.194;2022-07-29T14:18:18;29.10;72.20
14351;DHT22;59223;54.276;10.194;2022-07-29T14:20:47;29.10;72.00
14351;DHT22;59223;54.276;10.194;2022-07-29T14:23:14;29.10;72.00
14351;DHT22;59223;54.276;10.194;2022-07-29T14:25:42;29.10;71.60
14351;DHT22;59223;54.276;10.194;2022-07-29T14:28:10;29.10;71.70
14351;DHT22;59223;54.276;10.194;2022-07-29T14:30:37;28.80;72.70
14351;DHT22;59223;54.276;10.194;2022-07-29T14:33:04;29.20;72.70
14351;DHT22;59223;54.276;10.194;2022-07-29T14:35:30;29.30;72.60
14351;DHT22;59223;54.276;10.194;2022-07-29T14:38:00;29.50;71.90
14351;DHT22;59223;54.276;10.194;2022-07-29T14:40:27;29.50;71.60
14351;DHT22;59223;54.276;10.194;2022-07-29T14:42:53;30.10;70.80
14351;DHT22;59223;54.276;10.194;2022-07-29T14:45:22;30.50;69.70
14351;DHT22;59223;54.276;10.194;2022-07-29T14:47:49;30.90;69.10
14351;DHT22;59223;54.276;10.194;2022-07-29T14:50:24;31.60;67.30
14351;DHT22;59223;54.276;10.194;2022-07-29T14:52:58;31.70;66.40
14351;DHT22;59223;54.276;10.194;2022-07-29T14:55:29;32.20;65.40
14351;DHT22;59223;54.276;10.194;2022-07-29T14:57:56;32.80;64.80
14351;DHT22;59223;54.276;10.194;2022-07-29T15:00:35;33.60;62.90
14351;DHT22;59223;54.276;10.194;2022-07-29T15:03:03;33.50;63.00
14351;DHT22;59223;54.276;10.194;2022-07-29T15:05:33;33.50;63.70
14351;DHT22;59223;54.276;10.194;2022-07-29T15:08:03;33.80;62.50
14351;DHT22;59223;54.276;10.194;2022-07-29T15:10:30;34.00;62.30
14351;DHT22;59223;54.276;10.194;2022-07-29T15:12:59;33.80;61.00
14351;DHT22;59223;54.276;10.194;2022-07-29T15:15:28;34.10;61.10
14351;DHT22;59223;54.276;10.194;2022-07-29T15:17:56;34.20;59.70
14351;DHT22;59223;54.276;10.194;2022-07-29T15:20:25;34.20;59.70
14351;DHT22;59223;54.276;10.194;2022-07-29T15:22:54;34.50;59.30
14351;DHT22;59223;54.276;10.194;2022-07-29T15:25:25;35.00;59.00
14351;DHT22;59223;54.276;10.194;2022-07-29T15:27:54;35.90;57.90
14351;DHT22;59223;54.276;10.194;2022-07-29T15:30:27;36.00;57.30
14351;DHT22;59223;54.276;10.194;2022-07-29T15:32:58;35.70;57.20
14351;DHT22;59223;54.276;10.194;2022-07-29T15:35:26;35.90;56.20
14351;DHT22;59223;54.276;10.194;2022-07-29T15:37:52;36.20;55.20
14351;DHT22;59223;54.276;10.194;2022-07-29T15:40:19;36.20;54.60
14351;DHT22;59223;54.276;10.194;2022-07-29T15:42:46;36.20;53.90
14351;DHT22;59223;54.276;10.194;2022-07-29T15:45:13;35.80;53.80
14351;DHT22;59223;54.276;10.194;2022-07-29T15:47:40;35.50;54.20
14351;DHT22;59223;54.276;10.194;2022-07-29T15:50:08;35.60;54.20
14351;DHT22;59223;54.276;10.194;2022-07-29T15:52:41;36.30;53.80
14351;DHT22;59223;54.276;10.194;2022-07-29T15:55:08;36.30;54.40
14351;DHT22;59223;54.276;10.194;2022-07-29T15:57:35;36.60;54.20
14351;DHT22;59223;54.276;10.194;2022-07-29T16:00:03;36.90;54.10
14351;DHT22;59223;54.276;10.194;2022-07-29T16:02:31;37.00;54.80
14351;DHT22;59223;54.276;10.194;2022-07-29T16:04:58;37.30;54.20
14351;DHT22;59223;54.276;10.194;2022-07-29T16:07:25;37.30;54.30
14351;DHT22;59223;54.276;10.194;2022-07-29T16:10:00;36.90;55.10
14351;DHT22;59223;54.276;10.194;2022-07-29T16:12:27;36.50;55.50
14351;DHT22;59223;54.276;10.194;2022-07-29T16:14:56;36.60;55.80
14351;DHT22;59223;54.276;10.194;2022-07-29T16:17:23;36.70;56.10